Time;durP1;ratioP1;P1;durP2;ratioP2;P2;SDS_P1;SDS_P2;PMS_P1;PMS_P2;Temp;Humidity;BMP_temperature;BMP_pressure;BME280_temperature;BME280_humidity;BME280_pressure;Samples;Min_cycle;Max_cycle;Signal;HPM_P1;HPM_P2
2022/01/13 00:00:47;;;;;;;1.73;1.25;;;;;;;21.07;34.34;96023.56;4993038;28;20029;-59
2022/01/13 00:03:13;;;;;;;0.80;0.80;;;;;;;21.06;34.63;96016.69;5001447;28;20036;-59
2022/01/13 00:05:38;;;;;;;1.08;0.80;;;;;;;21.06;34.43;96015.88;5003196;28;20037;-60
2022/01/13 00:08:04;;;;;;;0.70;0.70;;;;;;;21.07;34.48;96022.78;5019765;28;20060;-59
2022/01/13 00:10:29;;;;;;;0.80;0.80;;;;;;;21.04;34.57;96029.31;4988742;28;20040;-59
2022/01/13 00:13:07;;;;;;;1.10;0.77;;;;;;;21.04;34.40;96034.63;4998826;28;20028;-60
2022/01/13 00:18:19;;;;;;;1.05;0.80;;;;;;;20.99;34.13;96031.81;5006690;28;20750;-59
2022/01/13 00:26:13;;;;;;;1.35;0.80;;;;;;;20.98;34.53;96040.81;5017529;28;20198;-59
2022/01/13 00:28:39;;;;;;;0.98;0.90;;;;;;;20.98;34.12;96043.44;4989160;28;20033;-59
2022/01/13 00:31:06;;;;;;;0.70;0.70;;;;;;;20.99;34.27;96038.97;4992786;28;20025;-59
2022/01/13 00:33:31;;;;;;;1.13;0.70;;;;;;;20.97;34.37;96041.81;5018787;28;20105;-59
2022/01/13 00:35:58;;;;;;;2.05;0.63;;;;;;;20.95;34.67;96041.22;4989722;28;20307;-60
2022/01/13 00:38:27;;;;;;;0.85;0.70;;;;;;;20.93;34.68;96038.00;5013582;28;20022;-59
2022/01/13 00:40:52;;;;;;;0.80;0.70;;;;;;;20.95;34.29;96046.53;5006679;28;20033;-59
2022/01/13 00:43:18;;;;;;;0.82;0.80;;;;;;;20.95;34.41;96049.16;5020470;28;20052;-59
2022/01/13 00:45:43;;;;;;;1.20;0.80;;;;;;;20.96;34.43;96040.22;4990178;28;20029;-59
2022/01/13 00:48:09;;;;;;;0.70;0.70;;;;;;;20.95;34.77;96040.44;5003478;28;20119;-59
2022/01/13 00:50:34;;;;;;;1.10;1.00;;;;;;;20.94;34.50;96039.59;4984088;28;20032;-60
2022/01/13 00:53:00;;;;;;;0.85;0.70;;;;;;;20.94;34.49;96036.97;4996468;28;20029;-59
2022/01/13 00:55:33;;;;;;;0.60;0.60;;;;;;;20.93;34.22;96043.28;4983705;28;20030;-59
2022/01/13 00:57:58;;;;;;;0.88;0.70;;;;;;;20.93;34.17;96038.00;5013856;28;20037;-59
2022/01/13 01:00:23;;;;;;;0.70;0.70;;;;;;;20.93;34.33;96035.38;4991890;28;20033;-60
2022/01/13 01:02:49;;;;;;;1.05;0.70;;;;;;;20.92;34.31;96028.44;4992103;28;21497;-59
2022/01/13 01:05:14;;;;;;;0.98;0.70;;;;;;;20.92;34.37;96036.38;5018265;28;20026;-59
2022/01/13 01:07:40;;;;;;;0.70;0.70;;;;;;;20.91;34.05;96034.78;4987306;28;20029;-59
2022/01/13 01:10:05;;;;;;;0.80;0.70;;;;;;;20.92;34.24;96031.09;4991724;28;20033;-59
2022/01/13 01:12:33;;;;;;;0.75;0.75;;;;;;;20.90;34.50;96041.09;5014122;28;20026;-60
2022/01/13 01:14:58;;;;;;;1.08;0.85;;;;;;;20.90;34.35;96041.09;5008587;28;20041;-60
2022/01/13 01:17:24;;;;;;;0.70;0.70;;;;;;;20.89;34.40;96050.06;5003529;28;20026;-59
2022/01/13 01:19:51;;;;;;;0.88;0.70;;;;;;;20.89;34.60;96047.41;5014527;28;20030;-60
2022/01/13 01:27:22;;;;;;;0.70;0.70;;;;;;;20.87;34.48;96060.06;5015119;28;20096;-59
2022/01/13 01:29:59;;;;;;;1.75;0.80;;;;;;;20.87;34.29;96054.78;5007030;28;20029;-59
2022/01/13 01:32:25;;;;;;;0.60;0.60;;;;;;;20.86;34.34;96061.88;4997183;28;20072;-59
2022/01/13 01:35:01;;;;;;;0.90;0.77;;;;;;;20.86;34.54;96067.16;4993737;28;20030;-59
2022/01/13 01:37:27;;;;;;;0.80;0.80;;;;;;;20.86;34.38;96071.66;4998222;28;20101;-59
2022/01/13 01:39:52;;;;;;;0.70;0.70;;;;;;;20.85;34.32;96068.22;5014750;28;20037;-60
2022/01/13 01:42:18;;;;;;;0.70;0.70;;;;;;;20.84;34.34;96065.78;5007917;28;20030;-59
2022/01/13 01:44:46;;;;;;;0.80;0.80;;;;;;;20.84;34.65;96066.56;4994195;28;20029;-58
2022/01/13 01:47:13;;;;;;;0.70;0.70;;;;;;;20.83;34.34;96064.19;4993819;28;20045;-60
2022/01/13 01:49:41;;;;;;;0.60;0.60;;;;;;;20.83;34.48;96058.88;4994981;28;20091;-59
2022/01/13 01:52:07;;;;;;;0.70;0.70;;;;;;;20.82;34.63;96057.25;5002857;28;20030;-59
2022/01/13 01:54:33;;;;;;;0.60;0.60;;;;;;;20.82;34.58;96062.53;4996867;28;20033;-59
2022/01/13 01:56:58;;;;;;;0.55;0.50;;;;;;;20.84;34.43;96068.41;5004742;28;20034;-59
2022/01/13 01:59:27;;;;;;;0.63;0.63;;;;;;;20.83;34.47;96070.25;5000194;28;20026;-60
2022/01/13 02:01:53;;;;;;;0.68;0.68;;;;;;;20.84;34.37;96071.06;5011236;28;20037;-59
2022/01/13 02:04:19;;;;;;;0.73;0.73;;;;;;;20.82;34.40;96073.91;4988784;28;20041;-60
2022/01/13 02:06:44;;;;;;;0.70;0.70;;;;;;;20.83;34.52;96072.09;4992655;28;20117;-60
2022/01/13 02:09:11;;;;;;;0.77;0.70;;;;;;;20.81;34.30;96076.78;4996334;28;20022;-59
2022/01/13 02:11:43;;;;;;;0.80;0.63;;;;;;;20.82;34.57;96073.13;5007736;28;20076;-60
2022/01/13 02:14:30;;;;;;;0.65;0.65;;;;;;;20.82;34.25;96070.47;4994521;28;20034;-59
2022/01/13 02:16:59;;;;;;;0.68;0.68;;;;;;;20.81;34.46;96074.13;5011762;28;20057;-59
2022/01/13 02:19:25;;;;;;;0.82;0.70;;;;;;;20.84;34.44;96071.88;5008742;28;20035;-59
2022/01/13 02:21:50;;;;;;;0.55;0.55;;;;;;;20.81;34.35;96066.22;4993713;28;20034;-60
2022/01/13 02:24:16;;;;;;;0.80;0.70;;;;;;;20.81;34.53;96074.97;4997708;28;20022;-59
2022/01/13 02:26:41;;;;;;;0.88;0.70;;;;;;;20.81;34.30;96076.78;4993714;28;20036;-60
2022/01/13 02:29:07;;;;;;;0.70;0.68;;;;;;;20.81;34.61;96072.31;5006867;28;20033;-59
2022/01/13 02:31:32;;;;;;;0.80;0.80;;;;;;;20.80;34.45;96070.69;4988778;28;20029;-59
2022/01/13 02:33:58;;;;;;;0.70;0.70;;;;;;;20.81;34.53;96074.97;5013838;28;20070;-59
2022/01/13 02:36:23;;;;;;;0.63;0.63;;;;;;;20.79;34.55;96071.75;4990875;28;20029;-60
2022/01/13 02:38:49;;;;;;;0.63;0.63;;;;;;;20.79;34.48;96068.25;4990952;28;20037;-59
2022/01/13 02:41:15;;;;;;;0.65;0.63;;;;;;;20.79;34.48;96069.09;5002032;28;20029;-59
2022/01/13 02:43:40;;;;;;;1.73;0.80;;;;;;;20.80;34.29;96059.31;5019907;28;20040;-60
2022/01/13 02:49:05;;;;;;;0.93;0.70;;;;;;;20.79;34.53;96042.66;4946309;28;20054;-59
2022/01/13 02:51:33;;;;;;;0.80;0.65;;;;;;;20.78;34.66;96046.31;4926621;28;20038;-59
2022/01/13 02:53:58;;;;;;;0.70;0.70;;;;;;;20.78;34.24;96038.38;4935753;28;20136;-59
2022/01/13 02:56:24;;;;;;;0.70;0.68;;;;;;;20.79;34.44;96045.31;4919851;28;20109;-59
2022/01/13 02:58:49;;;;;;;0.60;0.60;;;;;;;20.79;34.57;96041.81;4946194;28;20046;-60
2022/01/13 03:01:14;;;;;;;0.80;0.75;;;;;;;20.78;34.39;96042.88;4949845;28;20043;-59
2022/01/13 03:03:43;;;;;;;0.70;0.70;;;;;;;20.75;34.69;96041.47;4935596;28;21389;-59
2022/01/13 03:06:13;;;;;;;0.80;0.60;;;;;;;20.76;34.56;96044.94;4932329;28;20049;-60
2022/01/13 03:08:42;;;;;;;0.88;0.70;;;;;;;20.77;34.33;96047.38;4920355;29;20545;-59
2022/01/13 03:11:07;;;;;;;0.65;0.65;;;;;;;20.77;34.52;96057.09;4926710;28;20523;-60
2022/01/13 03:13:33;;;;;;;0.60;0.60;;;;;;;20.77;34.42;96050.00;4936394;28;20031;-59
2022/01/13 03:16:01;;;;;;;0.75;0.70;;;;;;;20.76;34.56;96053.66;4931938;28;20038;-59
2022/01/13 03:18:26;;;;;;;0.60;0.60;;;;;;;20.75;34.49;96059.16;4932111;28;20066;-59
2022/01/13 03:20:52;;;;;;;0.60;0.60;;;;;;;20.78;34.22;96053.44;4949792;28;20035;-59
2022/01/13 03:23:19;;;;;;;0.60;0.60;;;;;;;20.76;34.14;96042.28;4966891;28;20023;-60
2022/01/13 03:25:45;;;;;;;0.60;0.60;;;;;;;20.76;34.25;96042.28;4982746;28;20041;-59
2022/01/13 03:28:16;;;;;;;0.60;0.60;;;;;;;20.75;34.33;96048.59;5020245;28;20032;-59
2022/01/13 03:30:42;;;;;;;0.65;0.65;;;;;;;20.74;34.19;96047.00;4994964;28;20204;-59
2022/01/13 03:33:08;;;;;;;0.77;0.75;;;;;;;20.75;34.45;96052.03;5005322;28;20038;-59
2022/01/13 03:35:35;;;;;;;0.70;0.70;;;;;;;20.74;34.74;96050.44;5009045;28;20021;-59
2022/01/13 03:38:00;;;;;;;0.80;0.70;;;;;;;20.74;34.35;96044.34;5001334;28;20064;-59
2022/01/13 03:40:28;;;;;;;0.70;0.70;;;;;;;20.75;34.66;96045.94;4998429;28;20033;-59
2022/01/13 03:42:53;;;;;;;0.60;0.60;;;;;;;20.75;34.48;96045.94;5005853;28;20021;-59
2022/01/13 03:45:20;;;;;;;0.60;0.60;;;;;;;20.73;34.51;96046.16;4994919;28;20029;-59
2022/01/13 03:47:46;;;;;;;0.52;0.52;;;;;;;20.74;34.48;96039.84;4992699;28;20026;-59
2022/01/13 03:50:11;;;;;;;0.60;0.60;;;;;;;20.75;34.25;96035.38;4995086;28;20034;-59
2022/01/13 03:53:16;;;;;;;0.80;0.70;;;;;;;20.84;34.29;96039.34;5012635;28;20033;-59
2022/01/13 03:55:44;;;;;;;0.65;0.65;;;;;;;20.75;34.60;96038.81;5017311;28;20112;-60
2022/01/13 03:58:47;;;;;;;1.00;0.77;;;;;;;20.77;34.58;96039.44;5020555;28;20033;-60
2022/01/13 04:01:43;;;;;;;0.60;0.60;;;;;;;20.75;34.61;96038.81;5013904;28;20057;-59
2022/01/13 04:04:08;;;;;;;0.90;0.80;;;;;;;20.73;34.71;96034.78;5031706;28;20033;-59
2022/01/13 04:06:40;;;;;;;0.60;0.60;;;;;;;20.69;34.31;96027.31;5013569;28;20032;-59
2022/01/13 04:09:09;;;;;;;0.70;0.70;;;;;;;20.67;34.76;96026.69;5012139;28;20025;-59
2022/01/13 04:11:35;;;;;;;0.67;0.60;;;;;;;20.75;34.45;96019.50;5005591;28;20030;-60
2022/01/13 04:14:02;;;;;;;0.60;0.60;;;;;;;20.75;34.61;96027.44;5003664;28;20337;-59
2022/01/13 04:16:36;;;;;;;0.60;0.60;;;;;;;20.70;34.60;96028.91;4994085;28;20091;-59
2022/01/13 04:19:06;;;;;;;0.63;0.57;;;;;;;20.72;34.45;96025.25;4997052;28;20030;-59
2022/01/13 04:21:37;;;;;;;0.70;0.63;;;;;;;20.74;34.52;96023.19;4992453;28;20029;-59
2022/01/13 04:24:03;;;;;;;0.60;0.60;;;;;;;20.73;34.36;96021.56;5007298;28;20041;-59
2022/01/13 04:26:30;;;;;;;0.80;0.60;;;;;;;20.72;34.72;96020.78;4990118;28;20030;-59
2022/01/13 04:29:17;;;;;;;0.60;0.60;;;;;;;20.70;34.39;96022.84;5009902;28;20132;-59
2022/01/13 04:31:44;;;;;;;0.70;0.70;;;;;;;20.70;34.47;96018.34;4995955;28;20041;-59
2022/01/13 04:34:09;;;;;;;0.70;0.70;;;;;;;20.72;34.40;96022.63;4990304;28;20068;-60
2022/01/13 04:36:35;;;;;;;0.50;0.50;;;;;;;20.72;34.14;96025.25;5011114;28;20029;-59
2022/01/13 04:39:00;;;;;;;1.05;0.70;;;;;;;20.73;34.58;96025.00;4988309;28;20032;-60
2022/01/13 04:41:33;;;;;;;0.80;0.80;;;;;;;20.72;34.40;96026.06;4999135;28;20033;-60
2022/01/13 04:43:58;;;;;;;0.70;0.70;;;;;;;20.71;34.35;96029.72;5011098;28;20029;-59
2022/01/13 04:46:24;;;;;;;0.70;0.70;;;;;;;20.72;34.18;96027.91;5005733;28;20033;-59
2022/01/13 04:48:49;;;;;;;0.63;0.60;;;;;;;20.73;34.29;96024.22;5011028;28;20078;-59
2022/01/13 04:51:15;;;;;;;0.60;0.60;;;;;;;20.72;34.41;96030.53;4990692;28;20026;-59
2022/01/13 04:53:40;;;;;;;0.77;0.60;;;;;;;20.72;34.31;96028.69;4993752;28;20359;-59
2022/01/13 04:56:11;;;;;;;0.60;0.60;;;;;;;20.73;34.32;96026.84;4992699;28;20091;-59
2022/01/13 04:58:37;;;;;;;0.70;0.70;;;;;;;20.71;34.26;96027.06;5006447;28;20038;-59
2022/01/13 05:01:02;;;;;;;0.60;0.60;;;;;;;20.72;34.25;96027.91;5006182;28;20033;-59
2022/01/13 05:03:28;;;;;;;0.70;0.70;;;;;;;20.70;34.52;96026.28;4992862;28;20021;-59
2022/01/13 05:05:53;;;;;;;0.60;0.60;;;;;;;20.71;34.12;96029.72;5006027;28;20037;-60
2022/01/13 05:08:21;;;;;;;0.60;0.60;;;;;;;20.68;34.44;96035.47;4982143;28;20030;-59
2022/01/13 05:10:47;;;;;;;0.60;0.60;;;;;;;20.69;34.54;96024.69;5017028;28;20021;-59
2022/01/13 05:13:12;;;;;;;0.50;0.50;;;;;;;20.72;34.46;96026.06;4998240;28;20030;-59
2022/01/13 05:15:40;;;;;;;0.68;0.68;;;;;;;20.68;34.26;96020.41;4994986;28;20045;-59
2022/01/13 05:18:20;;;;;;;0.45;0.45;;;;;;;20.67;34.35;96021.41;4994567;28;20018;-59
2022/01/13 05:20:50;;;;;;;;;;;;;;;21.10;33.81;96027.63;5008860;28;20051;-59
2022/01/13 05:23:15;;;;;;;0.90;0.70;;;;;;;20.81;34.13;96023.91;5011739;28;19917;-59
2022/01/13 05:25:41;;;;;;;0.57;0.57;;;;;;;20.75;34.26;96024.78;5000038;28;20045;-59
2022/01/13 05:28:07;;;;;;;0.75;0.70;;;;;;;20.72;34.03;96028.69;5000280;28;20071;-59
2022/01/13 05:30:35;;;;;;;0.63;0.63;;;;;;;20.68;34.44;96024.88;5038601;28;20029;-59
2022/01/13 05:33:00;;;;;;;0.70;0.70;;;;;;;20.70;34.12;96022.84;5011286;28;20164;-60
2022/01/13 05:35:26;;;;;;;0.63;0.60;;;;;;;20.68;34.46;96025.69;5010247;28;20085;-59
2022/01/13 05:37:52;;;;;;;0.70;0.70;;;;;;;20.68;34.36;96020.41;5009904;28;20048;-59
2022/01/13 05:40:17;;;;;;;0.60;0.60;;;;;;;20.68;34.54;96024.88;5008529;28;20025;-59
2022/01/13 05:42:43;;;;;;;0.68;0.60;;;;;;;20.68;34.37;96025.69;4997415;28;20021;-59
2022/01/13 05:45:15;;;;;;;0.70;0.70;;;;;;;20.68;34.36;96020.41;5035935;28;20037;-60
2022/01/13 05:47:41;;;;;;;0.63;0.63;;;;;;;20.68;34.31;96024.88;5009113;28;20034;-59
2022/01/13 05:50:08;;;;;;;0.80;0.70;;;;;;;20.66;34.23;96022.47;5010768;28;20025;-59
2022/01/13 05:52:34;;;;;;;0.57;0.57;;;;;;;20.67;34.21;96020.63;5003557;28;20037;-60
2022/01/13 05:54:59;;;;;;;0.80;0.70;;;;;;;20.67;34.18;96018.78;5009689;28;20108;-59
2022/01/13 05:57:25;;;;;;;0.70;0.70;;;;;;;20.67;34.20;96015.34;5017234;28;20188;-59
2022/01/13 05:59:50;;;;;;;0.70;0.70;;;;;;;20.68;34.29;96016.97;5008175;28;20037;-59
2022/01/13 06:02:15;;;;;;;0.80;0.70;;;;;;;20.68;34.22;96009.03;5008544;28;20026;-59
2022/01/13 06:04:41;;;;;;;0.60;0.60;;;;;;;20.67;34.60;96018.78;4990708;28;20056;-60
2022/01/13 06:07:06;;;;;;;0.70;0.70;;;;;;;20.67;34.28;96010.84;4998520;28;20025;-59
2022/01/13 06:09:32;;;;;;;0.60;0.60;;;;;;;20.68;34.17;96019.59;5023190;28;20018;-59
2022/01/13 06:12:03;;;;;;;0.75;0.75;;;;;;;20.67;34.45;96024.06;5003200;28;20063;-59
2022/01/13 06:14:28;;;;;;;0.60;0.60;;;;;;;20.67;34.26;96021.41;4993103;28;20056;-59
2022/01/13 06:16:53;;;;;;;0.80;0.60;;;;;;;20.70;34.17;96028.91;5014685;28;20033;-59
2022/01/13 06:19:21;;;;;;;1.67;0.60;;;;;;;20.69;34.41;96035.25;4987083;28;20167;-59
2022/01/13 06:21:46;;;;;;;0.60;0.60;;;;;;;20.68;34.35;96027.53;4991027;28;20125;-59
2022/01/13 06:24:12;;;;;;;0.70;0.70;;;;;;;20.70;34.32;96031.56;5009761;28;20049;-60
2022/01/13 06:26:37;;;;;;;1.00;0.80;;;;;;;20.70;34.34;96034.19;5002175;28;20239;-59
2022/01/13 06:29:03;;;;;;;0.65;0.65;;;;;;;20.68;34.27;96032.81;4992656;28;20037;-59
2022/01/13 06:31:28;;;;;;;0.60;0.60;;;;;;;20.67;34.26;96021.41;5007862;28;20045;-59
2022/01/13 06:33:53;;;;;;;0.90;0.60;;;;;;;20.68;34.54;96025.69;4997280;28;20022;-59
2022/01/13 06:36:21;;;;;;;1.13;0.60;;;;;;;20.69;34.16;96027.31;5008050;28;20030;-60
2022/01/13 06:38:48;;;;;;;0.70;0.70;;;;;;;20.67;34.58;96023.25;5036884;28;20112;-59
2022/01/13 06:41:17;;;;;;;0.60;0.60;;;;;;;20.62;34.28;96025.75;5007960;28;20030;-59
2022/01/13 06:43:42;;;;;;;1.17;0.68;;;;;;;20.66;34.30;96025.09;4984351;28;20029;-59
2022/01/13 06:46:08;;;;;;;0.90;0.70;;;;;;;20.67;34.16;96039.91;5005886;28;20045;-59
2022/01/13 06:48:33;;;;;;;1.20;0.70;;;;;;;20.67;34.23;96042.56;4988416;28;20030;-59
2022/01/13 06:50:59;;;;;;;0.60;0.60;;;;;;;20.67;34.18;96047.84;5008990;28;20025;-59
2022/01/13 06:53:25;;;;;;;0.60;0.60;;;;;;;20.66;34.30;96050.75;4991251;28;20052;-59
2022/01/13 06:55:51;;;;;;;0.70;0.70;;;;;;;20.66;34.49;96056.81;5003779;28;20029;-59
2022/01/13 06:58:16;;;;;;;0.60;0.60;;;;;;;20.65;34.25;96057.84;4990619;28;20040;-59
2022/01/13 07:00:42;;;;;;;0.90;0.60;;;;;;;20.65;34.14;96057.84;4983670;28;20030;-59
2022/01/13 07:03:08;;;;;;;0.93;0.60;;;;;;;20.66;34.09;96058.66;4990584;28;20025;-59
2022/01/13 07:05:34;;;;;;;0.60;0.60;;;;;;;20.64;34.48;96066.00;4992317;28;20048;-59
2022/01/13 07:07:59;;;;;;;1.00;0.60;;;;;;;20.66;34.13;96067.41;5021449;28;20025;-59
2022/01/13 07:10:24;;;;;;;0.60;0.60;;;;;;;20.66;34.25;96071.88;5004662;28;20037;-59
2022/01/13 07:12:50;;;;;;;1.02;0.60;;;;;;;20.66;34.23;96061.31;4998865;28;20030;-59
2022/01/13 07:15:16;;;;;;;0.55;0.55;;;;;;;20.65;34.35;96047.25;5025870;28;20033;-59
2022/01/13 07:17:42;;;;;;;0.70;0.70;;;;;;;20.65;34.40;96055.19;4991101;28;20037;-59
2022/01/13 07:20:08;;;;;;;0.60;0.60;;;;;;;20.65;34.10;96055.19;4985767;28;20044;-60
2022/01/13 07:25:11;;;;;;;28.90;21.42;;;;;;;16.33;23.03;96040.16;5039038;27;20424;-76
2022/01/13 07:27:40;;;;;;;32.80;22.45;;;;;;;12.67;26.54;96036.16;5000069;28;20041;-75
2022/01/13 07:30:09;;;;;;;30.10;21.10;;;;;;;9.15;31.79;96039.50;5002816;28;20042;-76
2022/01/13 07:32:40;;;;;;;33.05;22.33;;;;;;;7.57;35.30;96055.84;5020952;28;20047;-76
2022/01/13 07:35:09;;;;;;;37.17;22.92;;;;;;;4.88;40.35;96053.50;5032879;28;20033;-75
2022/01/13 07:37:36;;;;;;;32.95;20.83;;;;;;;3.74;43.43;96061.41;4992535;28;20077;-75
2022/01/13 07:40:03;;;;;;;35.03;21.15;;;;;;;3.01;45.92;96053.03;5001284;28;20042;-75
2022/01/13 07:42:29;;;;;;;39.47;21.27;;;;;;;2.44;47.68;96064.75;4998937;28;20038;-76
2022/01/13 07:44:54;;;;;;;42.63;21.33;;;;;;;1.90;49.00;96062.44;5000324;28;20030;-75
2022/01/13 07:47:21;;;;;;;41.03;21.48;;;;;;;1.41;50.23;96063.13;4981278;28;20042;-76
2022/01/13 07:49:46;;;;;;;37.53;19.80;;;;;;;1.51;50.65;96067.56;4966208;28;20040;-76
2022/01/13 07:52:12;;;;;;;43.50;20.65;;;;;;;1.08;51.63;96061.84;4985207;28;20042;-76
2022/01/13 07:54:37;;;;;;;43.33;20.70;;;;;;;0.80;52.68;96049.97;5001936;28;20036;-75
2022/01/13 07:57:03;;;;;;;41.67;20.45;;;;;;;1.02;51.92;96049.44;4967002;28;20077;-76
2022/01/13 07:59:37;;;;;;;40.90;20.45;;;;;;;1.00;52.55;96051.28;5017197;28;20038;-76
2022/01/13 08:02:03;;;;;;;40.03;19.67;;;;;;;0.97;52.56;96040.31;4965294;28;20129;-75
2022/01/13 08:04:30;;;;;;;40.70;20.00;;;;;;;1.10;51.78;96054.88;4998012;28;20030;-75
2022/01/13 08:06:56;;;;;;;41.97;19.17;;;;;;;1.26;51.50;96054.72;4987394;28;20033;-75
2022/01/13 08:09:23;;;;;;;43.10;20.00;;;;;;;1.21;52.07;96061.88;5002101;28;20041;-75
2022/01/13 08:11:49;;;;;;;38.08;18.45;;;;;;;1.26;51.62;96060.66;4974355;28;20038;-76
2022/01/13 08:14:21;;;;;;;39.67;19.58;;;;;;;1.05;52.66;96067.16;4999182;28;20177;-75
2022/01/13 08:16:50;;;;;;;43.85;19.30;;;;;;;1.11;52.51;96059.09;4983827;28;20034;-75
2022/01/13 08:21:59;;;;;;;40.95;19.88;;;;;;;1.12;52.28;96076.09;4981128;28;20092;-75
2022/01/13 08:24:25;;;;;;;44.25;20.45;;;;;;;1.11;52.42;96075.28;4969446;28;20034;-76
2022/01/13 08:26:50;;;;;;;43.33;20.35;;;;;;;1.21;52.63;96077.25;4949682;28;20089;-81
2022/01/13 08:29:18;;;;;;;40.80;19.13;;;;;;;1.46;51.49;96079.84;4967775;28;20030;-76
2022/01/13 08:31:46;;;;;;;43.97;20.77;;;;;;;0.96;52.85;96078.81;4969420;28;20061;-75
2022/01/13 08:34:16;;;;;;;41.42;19.67;;;;;;;1.12;52.75;96076.09;4991470;28;20106;-76
2022/01/13 08:36:42;;;;;;;43.70;20.20;;;;;;;1.13;52.76;96073.44;4966098;28;20086;-76
2022/01/13 08:39:10;;;;;;;42.05;19.88;;;;;;;0.74;53.52;96075.06;4954273;28;20066;-76
2022/01/13 08:41:38;;;;;;;41.17;19.23;;;;;;;0.89;53.80;96065.56;4967716;28;20030;-76
2022/01/13 08:44:08;;;;;;;42.67;20.05;;;;;;;1.02;53.16;96065.59;4978377;28;20146;-76
2022/01/13 08:46:36;;;;;;;40.92;19.98;;;;;;;1.00;52.79;96064.88;4981380;28;20050;-77
2022/01/13 08:49:03;;;;;;;41.75;20.42;;;;;;;0.95;52.67;96067.75;4970899;28;20169;-76
2022/01/13 08:51:31;;;;;;;44.70;20.35;;;;;;;1.08;52.71;96072.09;4977020;28;20086;-77
2022/01/13 08:53:56;;;;;;;42.20;19.70;;;;;;;1.41;52.19;96073.38;4973024;28;20042;-77
2022/01/13 08:56:22;;;;;;;42.15;19.50;;;;;;;1.29;52.63;96062.19;4968707;28;20110;-76
2022/01/13 08:58:55;;;;;;;39.97;19.63;;;;;;;1.34;52.22;96068.66;4966564;28;20038;-76
2022/01/13 09:01:20;;;;;;;42.90;20.33;;;;;;;1.24;52.64;96065.06;4935740;28;20043;-76
2022/01/13 09:03:47;;;;;;;42.28;20.20;;;;;;;1.48;51.98;96069.50;4950802;28;20058;-76
2022/01/13 09:06:15;;;;;;;43.15;19.20;;;;;;;1.41;51.89;96068.25;4964557;28;20069;-76
2022/01/13 09:08:47;;;;;;;40.50;19.02;;;;;;;1.24;52.20;96064.22;4959027;28;20141;-76
2022/01/13 09:11:12;;;;;;;42.40;19.83;;;;;;;1.52;51.55;96065.81;4964315;28;20046;-76
2022/01/13 09:13:38;;;;;;;38.15;18.20;;;;;;;1.10;52.76;96070.25;4933954;28;20042;-76
2022/01/13 09:16:13;;;;;;;43.88;19.67;;;;;;;1.07;52.59;96065.34;4940528;28;20134;-76
2022/01/13 09:19:12;;;;;;;41.20;20.13;;;;;;;1.10;53.13;96065.13;4944816;28;20086;-76
2022/01/13 09:21:33;;;;;;;39.08;18.80;;;;;;;1.44;52.85;96073.19;4952149;28;20054;-76
2022/01/13 09:24:01;;;;;;;38.55;17.73;;;;;;;1.75;51.85;96077.94;4925201;28;20042;-76
2022/01/13 09:26:29;;;;;;;46.95;21.23;;;;;;;1.09;52.73;96068.63;4935559;28;20084;-76
2022/01/13 09:28:56;;;;;;;45.65;21.45;;;;;;;1.65;51.96;96079.47;4965581;28;20055;-76
2022/01/13 09:31:25;;;;;;;44.33;20.13;;;;;;;1.76;51.49;96086.47;4942153;28;20069;-76
2022/01/13 09:33:53;;;;;;;37.20;18.95;;;;;;;1.50;51.84;96083.84;4948994;28;20066;-76
2022/01/13 09:36:20;;;;;;;43.58;20.95;;;;;;;1.95;50.86;96097.13;4944172;28;20038;-76
2022/01/13 09:38:46;;;;;;;41.03;19.85;;;;;;;1.92;51.04;96093.94;4946206;28;20046;-76
2022/01/13 09:41:12;;;;;;;41.65;20.25;;;;;;;2.07;50.61;96092.09;4945737;28;20073;-76
2022/01/13 09:43:43;;;;;;;42.70;19.95;;;;;;;1.62;51.83;96101.91;4960540;28;20105;-76
2022/01/13 09:46:22;;;;;;;37.28;18.27;;;;;;;1.74;51.78;96094.25;4950293;28;20070;-76
2022/01/13 09:48:50;;;;;;;42.60;18.38;;;;;;;2.26;50.46;96095.06;4950049;28;20026;-76
2022/01/13 09:51:16;;;;;;;38.58;18.30;;;;;;;2.61;49.70;96090.97;4945457;28;20059;-76
2022/01/13 09:53:44;;;;;;;38.95;19.45;;;;;;;2.67;49.67;96096.53;4946326;28;20043;-76
2022/01/13 09:56:12;;;;;;;37.00;17.83;;;;;;;2.85;49.00;96098.72;4953720;28;20049;-76
2022/01/13 09:58:39;;;;;;;41.47;18.95;;;;;;;2.76;48.81;96096.78;4971180;28;20042;-76
2022/01/13 10:01:08;;;;;;;35.40;18.15;;;;;;;2.64;49.11;96101.84;4953797;28;20145;-76
2022/01/13 10:03:37;;;;;;;38.55;19.38;;;;;;;2.87;48.97;96095.09;4972028;28;20066;-76
2022/01/13 10:06:17;;;;;;;35.85;17.95;;;;;;;2.73;48.84;96090.13;4953934;28;20376;-76
2022/01/13 10:08:47;;;;;;;37.77;17.87;;;;;;;2.46;49.20;96090.31;4966367;28;20049;-76
2022/01/13 10:11:48;;;;;;;37.22;18.10;;;;;;;2.37;49.88;96090.94;4965987;28;20297;-76
2022/01/13 10:16:54;;;;;;;33.60;16.67;;;;;;;2.07;49.52;96082.66;4967232;28;20048;-76
2022/01/13 10:19:25;;;;;;;35.50;16.27;;;;;;;1.62;50.52;96081.41;4952574;28;20052;-76
2022/01/13 10:22:16;;;;;;;36.47;17.40;;;;;;;1.88;50.58;96087.38;4982987;28;20074;-76
2022/01/13 10:24:52;;;;;;;36.78;17.67;;;;;;;2.22;49.42;96080.78;4962489;28;20035;-76
2022/01/13 10:27:18;;;;;;;39.17;17.92;;;;;;;2.51;48.98;96076.22;4952383;28;20127;-76
2022/01/13 10:29:55;;;;;;;40.22;17.65;;;;;;;2.16;50.12;96081.22;4962887;28;20057;-76
2022/01/13 10:32:25;;;;;;;36.92;17.83;;;;;;;2.28;49.05;96079.56;4975476;28;20049;-76
2022/01/13 10:34:57;;;;;;;35.75;18.00;;;;;;;2.53;49.09;96074.38;4947115;28;20064;-76
2022/01/13 10:38:02;;;;;;;35.72;17.83;;;;;;;2.72;48.72;96073.06;4967549;28;20042;-76
2022/01/13 10:40:33;;;;;;;35.22;17.45;;;;;;;3.01;48.17;96073.59;4975235;28;20070;-78
2022/01/13 10:45:32;;;;;;;36.65;18.17;;;;;;;3.41;46.50;96078.41;4973556;28;20046;-76
2022/01/13 10:48:02;;;;;;;34.17;17.73;;;;;;;3.01;47.12;96083.03;4969357;28;20042;-76
2022/01/13 10:50:33;;;;;;;38.25;17.38;;;;;;;3.19;47.26;96075.75;4965754;28;20109;-76
2022/01/13 10:53:03;;;;;;;35.63;18.42;;;;;;;4.26;44.20;96072.09;4965073;28;20034;-76
2022/01/13 10:55:29;;;;;;;29.67;16.50;;;;;;;5.64;41.88;96073.25;4949917;28;20034;-77
2022/01/13 10:57:54;;;;;;;32.28;16.50;;;;;;;6.05;40.30;96079.34;4952414;28;20039;-77
2022/01/13 11:00:24;;;;;;;31.13;17.50;;;;;;;6.92;38.08;96071.09;4946536;28;20142;-76
2022/01/13 11:03:07;;;;;;;27.48;15.88;;;;;;;7.85;36.22;96062.91;4928722;28;20043;-76
2022/01/13 11:05:59;;;;;;;31.63;16.77;;;;;;;8.16;35.42;96055.72;4958098;28;20214;-77
2022/01/13 11:08:43;;;;;;;29.42;16.85;;;;;;;8.73;34.15;96055.63;4945977;28;20051;-78
2022/01/13 11:11:20;;;;;;;29.88;17.00;;;;;;;9.18;33.27;96052.19;4946959;28;20039;-78
2022/01/13 11:13:49;;;;;;;28.90;17.25;;;;;;;9.51;32.23;96062.88;4952287;28;20030;-77
2022/01/13 11:16:15;;;;;;;28.13;16.73;;;;;;;10.11;31.84;96047.38;4944492;28;20050;-78
2022/01/13 11:18:40;;;;;;;26.95;17.45;;;;;;;10.44;31.34;96051.94;4930238;28;20106;-78
2022/01/13 11:21:06;;;;;;;28.63;17.65;;;;;;;9.90;31.50;96049.50;4946190;28;20055;-78
2022/01/13 11:23:31;;;;;;;30.45;18.45;;;;;;;9.59;31.79;96049.94;4930405;28;20120;-78
2022/01/13 11:25:57;;;;;;;29.70;18.20;;;;;;;8.65;33.15;96050.34;4932206;28;20059;-78
2022/01/13 11:28:22;;;;;;;28.48;17.10;;;;;;;9.18;32.42;96041.81;4930996;28;20042;-78
2022/01/13 11:30:56;;;;;;;27.02;17.77;;;;;;;9.17;32.66;96042.78;4913720;28;20066;-78
2022/01/13 11:33:29;;;;;;;26.60;17.00;;;;;;;9.28;32.46;96045.16;4961972;28;20097;-78
2022/01/13 11:35:59;;;;;;;27.52;17.75;;;;;;;9.35;32.53;96035.00;4972024;28;20042;-78
2022/01/13 11:38:32;;;;;;;27.23;17.13;;;;;;;9.54;32.55;96040.00;4964822;28;20046;-78
2022/01/13 11:41:25;;;;;;;29.55;18.42;;;;;;;9.86;31.73;96046.41;4962586;28;20129;-79
2022/01/13 11:43:55;;;;;;;26.40;16.33;;;;;;;10.74;30.24;96042.81;4942017;28;20102;-79
2022/01/13 11:46:22;;;;;;;27.17;17.63;;;;;;;10.54;30.25;96037.84;4925367;28;20162;-79
2022/01/13 11:48:59;;;;;;;26.95;18.00;;;;;;;10.06;30.39;96039.22;4903901;28;20102;-78
2022/01/13 11:51:25;;;;;;;27.38;18.27;;;;;;;9.46;31.76;96021.78;4925903;28;20101;-79
2022/01/13 11:53:55;;;;;;;27.95;16.95;;;;;;;11.07;30.57;96019.44;4920951;28;20039;-78
2022/01/13 11:56:22;;;;;;;26.23;17.50;;;;;;;12.45;28.30;96032.50;4925089;29;20047;-78
2022/01/13 11:58:51;;;;;;;27.77;17.85;;;;;;;12.86;27.07;96020.06;4922475;28;20044;-79
2022/01/13 12:01:16;;;;;;;26.30;17.77;;;;;;;12.57;27.12;96019.91;4919800;28;20054;-78